sensor_id;sensor_type;location;lat;lon;timestamp;pressure;altitude;pressure_sealevel;temperature;humidity
71903;BME280;59778;50.310;18.780;2023-03-16T00:07:25;99075.78;;;0.10;90.60
71903;BME280;59778;50.310;18.780;2023-03-16T00:22:46;99073.09;;;0.21;90.35
71903;BME280;59778;50.310;18.780;2023-03-16T00:38:08;99079.91;;;0.25;88.29
71903;BME280;59778;50.310;18.780;2023-03-16T00:53:29;99085.59;;;0.32;85.77
71903;BME280;59778;50.310;18.780;2023-03-16T01:08:52;99089.50;;;-0.17;91.69
71903;BME280;59778;50.310;18.780;2023-03-16T01:24:33;99094.09;;;-0.30;89.81
71903;BME280;59778;50.310;18.780;2023-03-16T01:39:54;99113.53;;;-0.63;95.01
71903;BME280;59778;50.310;18.780;2023-03-16T01:55:16;99113.84;;;-0.78;98.86
71903;BME280;59778;50.310;18.780;2023-03-16T02:10:39;99121.72;;;-0.42;96.29
71903;BME280;59778;50.310;18.780;2023-03-16T02:26:14;99151.22;;;-0.32;91.86
71903;BME280;59778;50.310;18.780;2023-03-16T02:41:37;99166.72;;;-0.37;89.56
71903;BME280;59778;50.310;18.780;2023-03-16T02:57:02;99185.09;;;-0.57;88.88
71903;BME280;59778;50.310;18.780;2023-03-16T03:12:23;99191.00;;;-0.64;89.37
71903;BME280;59778;50.310;18.780;2023-03-16T03:27:46;99212.19;;;-0.86;89.98
71903;BME280;59778;50.310;18.780;2023-03-16T03:43:08;99236.94;;;-1.21;88.32
71903;BME280;59778;50.310;18.780;2023-03-16T03:58:29;99246.66;;;-1.20;88.17
71903;BME280;59778;50.310;18.780;2023-03-16T04:13:51;99246.03;;;-1.23;87.34
71903;BME280;59778;50.310;18.780;2023-03-16T04:29:14;99251.69;;;-1.53;86.66
71903;BME280;59778;50.310;18.780;2023-03-16T04:44:38;99259.88;;;-2.07;89.43
71903;BME280;59778;50.310;18.780;2023-03-16T05:00:05;99268.00;;;-1.70;86.78
71903;BME280;59778;50.310;18.780;2023-03-16T05:15:39;99305.13;;;-1.81;88.55
71903;BME280;59778;50.310;18.780;2023-03-16T05:31:00;99314.75;;;-1.79;87.66
71903;BME280;59778;50.310;18.780;2023-03-16T05:46:23;99320.53;;;-1.47;88.25
71903;BME280;59778;50.310;18.780;2023-03-16T06:01:45;99338.09;;;-1.19;91.84
71903;BME280;59778;50.310;18.780;2023-03-16T06:17:06;99361.13;;;-0.57;95.91
71903;BME280;59778;50.310;18.780;2023-03-16T06:32:29;99366.88;;;-0.26;97.36
71903;BME280;59778;50.310;18.780;2023-03-16T06:47:50;99388.75;;;0.03;96.18
71903;BME280;59778;50.310;18.780;2023-03-16T07:03:11;99389.75;;;0.13;96.60
71903;BME280;59778;50.310;18.780;2023-03-16T07:18:34;99405.72;;;0.60;95.18
71903;BME280;59778;50.310;18.780;2023-03-16T07:33:59;99414.75;;;0.70;93.02
71903;BME280;59778;50.310;18.780;2023-03-16T07:49:24;99428.19;;;1.15;93.09
71903;BME280;59778;50.310;18.780;2023-03-16T08:04:47;99424.03;;;2.00;88.42
71903;BME280;59778;50.310;18.780;2023-03-16T08:20:10;99431.38;;;3.03;84.33
71903;BME280;59778;50.310;18.780;2023-03-16T08:35:35;99425.16;;;3.53;79.59
71903;BME280;59778;50.310;18.780;2023-03-16T08:51:03;99434.25;;;4.02;77.22
71903;BME280;59778;50.310;18.780;2023-03-16T09:06:35;99437.00;;;4.79;69.27
71903;BME280;59778;50.310;18.780;2023-03-16T09:21:57;99444.50;;;4.94;69.36
71903;BME280;59778;50.310;18.780;2023-03-16T09:37:20;99459.34;;;4.98;68.34
71903;BME280;59778;50.310;18.780;2023-03-16T10:08:38;99457.06;;;5.69;63.19
71903;BME280;59778;50.310;18.780;2023-03-16T10:24:03;99468.00;;;6.04;61.58
71903;BME280;59778;50.310;18.780;2023-03-16T10:39:35;99475.34;;;5.29;61.76
71903;BME280;59778;50.310;18.780;2023-03-16T10:54:59;99467.44;;;6.10;60.04
71903;BME280;59778;50.310;18.780;2023-03-16T11:10:27;99467.28;;;5.75;60.59
71903;BME280;59778;50.310;18.780;2023-03-16T11:25:51;99460.56;;;5.42;58.10
71903;BME280;59778;50.310;18.780;2023-03-16T11:41:27;99456.75;;;5.82;55.29
71903;BME280;59778;50.310;18.780;2023-03-16T11:57:07;99463.47;;;5.68;56.97
71903;BME280;59778;50.310;18.780;2023-03-16T12:28:05;99437.69;;;6.83;50.97
71903;BME280;59778;50.310;18.780;2023-03-16T12:43:56;99438.72;;;6.19;52.86
71903;BME280;59778;50.310;18.780;2023-03-16T12:59:22;99428.13;;;6.35;48.67
71903;BME280;59778;50.310;18.780;2023-03-16T13:14:46;99436.75;;;7.35;45.14
71903;BME280;59778;50.310;18.780;2023-03-16T13:30:30;99425.69;;;9.13;41.26
71903;BME280;59778;50.310;18.780;2023-03-16T13:45:52;99419.94;;;8.17;43.27
71903;BME280;59778;50.310;18.780;2023-03-16T14:01:26;99417.78;;;7.87;43.90
71903;BME280;59778;50.310;18.780;2023-03-16T14:16:48;99427.06;;;7.84;43.70
71903;BME280;59778;50.310;18.780;2023-03-16T14:32:29;99423.13;;;7.45;44.66
71903;BME280;59778;50.310;18.780;2023-03-16T14:47:51;99419.44;;;7.80;44.21
71903;BME280;59778;50.310;18.780;2023-03-16T15:03:16;99424.53;;;9.07;39.26
71903;BME280;59778;50.310;18.780;2023-03-16T15:18:37;99426.22;;;8.84;38.29
71903;BME280;59778;50.310;18.780;2023-03-16T15:34:01;99424.94;;;8.38;37.83
71903;BME280;59778;50.310;18.780;2023-03-16T15:49:23;99422.25;;;10.53;35.08
71903;BME280;59778;50.310;18.780;2023-03-16T16:04:44;99437.97;;;9.72;35.14
71903;BME280;59778;50.310;18.780;2023-03-16T16:20:29;99452.88;;;9.76;35.85
71903;BME280;59778;50.310;18.780;2023-03-16T16:35:52;99451.34;;;8.44;38.45
71903;BME280;59778;50.310;18.780;2023-03-16T16:51:25;99461.06;;;7.35;41.30
71903;BME280;59778;50.310;18.780;2023-03-16T17:06:47;99472.56;;;6.31;46.81
71903;BME280;59778;50.310;18.780;2023-03-16T17:22:23;99480.88;;;5.37;51.57
71903;BME280;59778;50.310;18.780;2023-03-16T17:37:46;99488.94;;;4.41;52.13
71903;BME280;59778;50.310;18.780;2023-03-16T17:53:08;99500.13;;;3.66;53.53
71903;BME280;59778;50.310;18.780;2023-03-16T18:08:30;99505.19;;;2.97;57.28
71903;BME280;59778;50.310;18.780;2023-03-16T18:23:54;99515.84;;;2.56;59.74
71903;BME280;59778;50.310;18.780;2023-03-16T18:39:19;99524.34;;;1.96;62.38
71903;BME280;59778;50.310;18.780;2023-03-16T18:54:41;99542.50;;;1.81;64.58
71903;BME280;59778;50.310;18.780;2023-03-16T19:25:46;99554.66;;;1.17;68.97
71903;BME280;59778;50.310;18.780;2023-03-16T19:41:23;99570.63;;;0.94;70.04
71903;BME280;59778;50.310;18.780;2023-03-16T19:56:47;99562.25;;;0.75;69.86
71903;BME280;59778;50.310;18.780;2023-03-16T20:12:34;99565.22;;;0.60;70.84
71903;BME280;59778;50.310;18.780;2023-03-16T20:27:59;99565.06;;;0.50;72.37
71903;BME280;59778;50.310;18.780;2023-03-16T20:43:24;99564.63;;;0.43;72.74
71903;BME280;59778;50.310;18.780;2023-03-16T20:58:48;99573.00;;;0.39;72.97
71903;BME280;59778;50.310;18.780;2023-03-16T21:14:15;99568.34;;;0.17;74.57
71903;BME280;59778;50.310;18.780;2023-03-16T21:29:37;99567.91;;;0.23;73.40
71903;BME280;59778;50.310;18.780;2023-03-16T21:44:58;99576.50;;;0.03;73.98
71903;BME280;59778;50.310;18.780;2023-03-16T22:00:26;99578.47;;;-0.24;76.33
71903;BME280;59778;50.310;18.780;2023-03-16T22:15:48;99567.97;;;-0.65;79.56
71903;BME280;59778;50.310;18.780;2023-03-16T22:31:14;99554.97;;;-0.70;79.23
71903;BME280;59778;50.310;18.780;2023-03-16T22:46:36;99533.28;;;-0.78;78.67
71903;BME280;59778;50.310;18.780;2023-03-16T23:01:58;99520.38;;;-0.97;80.34
71903;BME280;59778;50.310;18.780;2023-03-16T23:17:20;99523.69;;;-0.93;79.52
71903;BME280;59778;50.310;18.780;2023-03-16T23:32:45;99544.91;;;-0.91;78.93
71903;BME280;59778;50.310;18.780;2023-03-16T23:48:13;99545.09;;;-0.95;78.89
